首页
METAR-TAF:

METAR-TAF

机场 :

朱麗安娜公主國際機場

荷屬聖馬丁, 荷属安的列斯

纬度: 18-03N, 经度: 063-07W, 海拔: 4米

当前天气观测

该预报发布于16分钟前的17:00 UTC
风速14节,风向东北
温度 32°C
湿度 63%
气压 1019 hPa
能见度10公里或以上
多云层高于1800英尺

METAR: TNCM 081700Z 05014KT 9999 BKN018 32/24 Q1019 NOSIG

时间: 13:16 (17:16 UTC)

预报

该预报发布于5小时和56分钟前的11:20 UTC
预报有效从08日的 12点(UTC)到 09日的 12点(UTC)
风速10节,风向东转东北
能見度: 10公里
少量云层高于1800英尺
散云层高于3500英尺
从 08日的 1400点(UTC)
风速12节,风向
能見度: 10公里
少量云层高于2000英尺
从 08日的 2230点(UTC)
风速8节,风向东转东北
能見度: 10公里
少量云层高于1900英尺
散云层高于3500英尺

TAF: TNCM 081120Z 0812/0912 06010KT P6SM FEW018 SCT035 FM081400 10012KT P6SM FEW020 FM082230 07008KT P6SM FEW019 SCT035

超过4000个机场的气象观测和天气预报(METAR&TAF报告)。

可查询的气象台以黄色和红色小点在地图上表示。

将鼠标移到小点上方,可查看气象台名称。

然后点击查看天气观测和预报。

如需切换地图:点击带黑十字的绿色按钮放大地图;点击带横线的绿色按钮缩小地图;或者点击绿色箭头查看邻近地区的地图。


METAR-TAF: